sensor_id;sensor_type;location;lat;lon;timestamp;P1;durP1;ratioP1;P2;durP2;ratioP2
58294;SDS011;45705;55.592;37.460;2023-06-22T00:02:16;10.18;;;6.15;;
58294;SDS011;45705;55.592;37.460;2023-06-22T00:04:43;14.70;;;5.85;;
58294;SDS011;45705;55.592;37.460;2023-06-22T00:07:09;9.02;;;5.22;;
58294;SDS011;45705;55.592;37.460;2023-06-22T00:09:35;15.10;;;6.20;;
58294;SDS011;45705;55.592;37.460;2023-06-22T00:12:01;11.32;;;5.53;;
58294;SDS011;45705;55.592;37.460;2023-06-22T00:14:26;9.23;;;5.03;;
58294;SDS011;45705;55.592;37.460;2023-06-22T00:16:52;14.20;;;5.88;;
58294;SDS011;45705;55.592;37.460;2023-06-22T00:19:20;11.98;;;5.63;;
58294;SDS011;45705;55.592;37.460;2023-06-22T00:21:47;11.40;;;5.47;;
58294;SDS011;45705;55.592;37.460;2023-06-22T00:24:20;12.13;;;5.35;;
58294;SDS011;45705;55.592;37.460;2023-06-22T00:26:47;14.77;;;6.45;;
58294;SDS011;45705;55.592;37.460;2023-06-22T00:29:13;11.40;;;6.43;;
58294;SDS011;45705;55.592;37.460;2023-06-22T00:31:39;16.00;;;5.90;;
58294;SDS011;45705;55.592;37.460;2023-06-22T00:34:05;14.05;;;6.38;;
58294;SDS011;45705;55.592;37.460;2023-06-22T00:36:33;14.48;;;7.03;;
58294;SDS011;45705;55.592;37.460;2023-06-22T00:38:58;11.38;;;6.07;;
58294;SDS011;45705;55.592;37.460;2023-06-22T00:41:24;10.45;;;5.65;;
58294;SDS011;45705;55.592;37.460;2023-06-22T00:43:54;9.75;;;5.85;;
58294;SDS011;45705;55.592;37.460;2023-06-22T00:46:20;12.45;;;5.65;;
58294;SDS011;45705;55.592;37.460;2023-06-22T00:48:48;10.53;;;5.83;;
58294;SDS011;45705;55.592;37.460;2023-06-22T00:51:14;14.68;;;6.00;;
58294;SDS011;45705;55.592;37.460;2023-06-22T00:53:40;12.25;;;5.72;;
58294;SDS011;45705;55.592;37.460;2023-06-22T00:56:09;19.38;;;6.78;;
58294;SDS011;45705;55.592;37.460;2023-06-22T00:58:38;11.13;;;6.00;;
58294;SDS011;45705;55.592;37.460;2023-06-22T01:01:06;11.73;;;5.38;;
58294;SDS011;45705;55.592;37.460;2023-06-22T01:03:33;13.85;;;6.05;;
58294;SDS011;45705;55.592;37.460;2023-06-22T01:06:02;10.82;;;6.13;;
58294;SDS011;45705;55.592;37.460;2023-06-22T01:08:38;14.45;;;6.03;;
58294;SDS011;45705;55.592;37.460;2023-06-22T01:11:16;12.38;;;5.82;;
58294;SDS011;45705;55.592;37.460;2023-06-22T01:16:29;8.88;;;5.25;;
58294;SDS011;45705;55.592;37.460;2023-06-22T01:21:23;7.63;;;5.32;;
58294;SDS011;45705;55.592;37.460;2023-06-22T01:23:56;11.95;;;5.57;;
58294;SDS011;45705;55.592;37.460;2023-06-22T01:29:19;9.40;;;5.07;;
58294;SDS011;45705;55.592;37.460;2023-06-22T01:31:47;13.75;;;5.47;;
58294;SDS011;45705;55.592;37.460;2023-06-22T01:34:15;12.17;;;5.70;;
58294;SDS011;45705;55.592;37.460;2023-06-22T01:36:42;9.10;;;4.85;;
58294;SDS011;45705;55.592;37.460;2023-06-22T01:39:08;10.00;;;5.30;;
58294;SDS011;45705;55.592;37.460;2023-06-22T01:41:36;8.60;;;4.97;;
58294;SDS011;45705;55.592;37.460;2023-06-22T01:44:05;10.83;;;5.40;;
58294;SDS011;45705;55.592;37.460;2023-06-22T01:46:35;9.60;;;5.00;;
58294;SDS011;45705;55.592;37.460;2023-06-22T01:49:04;11.23;;;5.70;;
58294;SDS011;45705;55.592;37.460;2023-06-22T01:51:31;10.68;;;5.38;;
58294;SDS011;45705;55.592;37.460;2023-06-22T01:53:59;9.05;;;6.22;;
58294;SDS011;45705;55.592;37.460;2023-06-22T01:56:24;8.40;;;6.25;;
58294;SDS011;45705;55.592;37.460;2023-06-22T01:59:09;13.38;;;6.15;;
58294;SDS011;45705;55.592;37.460;2023-06-22T02:05:17;12.20;;;6.07;;
58294;SDS011;45705;55.592;37.460;2023-06-22T02:07:34;15.63;;;6.20;;
58294;SDS011;45705;55.592;37.460;2023-06-22T02:10:06;11.43;;;5.90;;
58294;SDS011;45705;55.592;37.460;2023-06-22T02:12:34;13.40;;;6.00;;
58294;SDS011;45705;55.592;37.460;2023-06-22T02:15:01;12.52;;;5.78;;
58294;SDS011;45705;55.592;37.460;2023-06-22T02:17:29;14.02;;;5.75;;
58294;SDS011;45705;55.592;37.460;2023-06-22T02:20:00;15.77;;;5.50;;
58294;SDS011;45705;55.592;37.460;2023-06-22T02:22:29;12.05;;;5.93;;
58294;SDS011;45705;55.592;37.460;2023-06-22T02:24:55;11.80;;;5.60;;
58294;SDS011;45705;55.592;37.460;2023-06-22T02:27:21;11.13;;;6.88;;
58294;SDS011;45705;55.592;37.460;2023-06-22T02:29:47;8.52;;;5.45;;
58294;SDS011;45705;55.592;37.460;2023-06-22T02:32:13;10.40;;;5.97;;
58294;SDS011;45705;55.592;37.460;2023-06-22T02:34:38;17.17;;;5.57;;
58294;SDS011;45705;55.592;37.460;2023-06-22T02:37:08;11.05;;;5.50;;
58294;SDS011;45705;55.592;37.460;2023-06-22T02:39:39;13.45;;;5.55;;
58294;SDS011;45705;55.592;37.460;2023-06-22T02:42:07;8.52;;;5.20;;
58294;SDS011;45705;55.592;37.460;2023-06-22T02:44:32;10.82;;;5.10;;
58294;SDS011;45705;55.592;37.460;2023-06-22T02:46:58;7.05;;;4.80;;
58294;SDS011;45705;55.592;37.460;2023-06-22T02:49:24;12.13;;;5.93;;
58294;SDS011;45705;55.592;37.460;2023-06-22T02:51:50;10.02;;;5.38;;
58294;SDS011;45705;55.592;37.460;2023-06-22T02:56:47;8.73;;;5.07;;
58294;SDS011;45705;55.592;37.460;2023-06-22T02:59:13;7.90;;;5.30;;
58294;SDS011;45705;55.592;37.460;2023-06-22T03:01:39;12.80;;;6.43;;
58294;SDS011;45705;55.592;37.460;2023-06-22T03:04:11;8.27;;;4.55;;
58294;SDS011;45705;55.592;37.460;2023-06-22T03:06:36;9.52;;;5.50;;
58294;SDS011;45705;55.592;37.460;2023-06-22T03:09:06;6.90;;;5.35;;
58294;SDS011;45705;55.592;37.460;2023-06-22T03:11:33;10.70;;;5.45;;
58294;SDS011;45705;55.592;37.460;2023-06-22T03:14:02;7.70;;;5.10;;
58294;SDS011;45705;55.592;37.460;2023-06-22T03:16:28;9.85;;;5.13;;
58294;SDS011;45705;55.592;37.460;2023-06-22T03:18:55;7.03;;;5.13;;
58294;SDS011;45705;55.592;37.460;2023-06-22T03:21:27;8.55;;;5.25;;
58294;SDS011;45705;55.592;37.460;2023-06-22T03:23:54;10.18;;;5.45;;
58294;SDS011;45705;55.592;37.460;2023-06-22T03:26:20;13.40;;;5.38;;
58294;SDS011;45705;55.592;37.460;2023-06-22T03:28:46;12.30;;;5.10;;
58294;SDS011;45705;55.592;37.460;2023-06-22T03:31:12;9.85;;;5.75;;
58294;SDS011;45705;55.592;37.460;2023-06-22T03:33:39;9.73;;;5.15;;
58294;SDS011;45705;55.592;37.460;2023-06-22T03:36:05;11.48;;;5.57;;
58294;SDS011;45705;55.592;37.460;2023-06-22T03:38:31;11.82;;;5.32;;
58294;SDS011;45705;55.592;37.460;2023-06-22T03:40:57;11.63;;;5.75;;
58294;SDS011;45705;55.592;37.460;2023-06-22T03:43:24;14.05;;;5.18;;
58294;SDS011;45705;55.592;37.460;2023-06-22T03:45:50;7.30;;;4.90;;
58294;SDS011;45705;55.592;37.460;2023-06-22T03:48:15;17.27;;;5.65;;
58294;SDS011;45705;55.592;37.460;2023-06-22T03:50:41;10.30;;;5.63;;
58294;SDS011;45705;55.592;37.460;2023-06-22T03:53:09;7.60;;;4.85;;
58294;SDS011;45705;55.592;37.460;2023-06-22T03:55:35;9.70;;;5.10;;
58294;SDS011;45705;55.592;37.460;2023-06-22T03:58:02;8.45;;;5.22;;
58294;SDS011;45705;55.592;37.460;2023-06-22T04:00:31;10.60;;;5.07;;
58294;SDS011;45705;55.592;37.460;2023-06-22T04:02:57;9.20;;;5.10;;
58294;SDS011;45705;55.592;37.460;2023-06-22T04:05:23;12.05;;;5.50;;
58294;SDS011;45705;55.592;37.460;2023-06-22T04:07:49;15.90;;;5.30;;
58294;SDS011;45705;55.592;37.460;2023-06-22T04:10:15;10.38;;;5.30;;
58294;SDS011;45705;55.592;37.460;2023-06-22T04:12:41;13.93;;;5.10;;
58294;SDS011;45705;55.592;37.460;2023-06-22T04:15:06;14.05;;;4.90;;
58294;SDS011;45705;55.592;37.460;2023-06-22T04:17:33;12.30;;;5.57;;
58294;SDS011;45705;55.592;37.460;2023-06-22T04:19:59;11.80;;;5.95;;
58294;SDS011;45705;55.592;37.460;2023-06-22T04:22:25;8.60;;;5.05;;
58294;SDS011;45705;55.592;37.460;2023-06-22T04:24:50;7.68;;;4.32;;
58294;SDS011;45705;55.592;37.460;2023-06-22T04:27:18;11.02;;;4.95;;
58294;SDS011;45705;55.592;37.460;2023-06-22T04:29:44;6.53;;;4.50;;
58294;SDS011;45705;55.592;37.460;2023-06-22T04:32:14;8.48;;;4.78;;
58294;SDS011;45705;55.592;37.460;2023-06-22T04:34:41;7.75;;;4.75;;
58294;SDS011;45705;55.592;37.460;2023-06-22T04:37:07;9.00;;;4.78;;
58294;SDS011;45705;55.592;37.460;2023-06-22T04:39:32;6.93;;;4.70;;
58294;SDS011;45705;55.592;37.460;2023-06-22T04:41:58;12.75;;;4.88;;
58294;SDS011;45705;55.592;37.460;2023-06-22T04:44:26;7.75;;;4.45;;
58294;SDS011;45705;55.592;37.460;2023-06-22T04:46:59;7.07;;;4.18;;
58294;SDS011;45705;55.592;37.460;2023-06-22T04:49:28;6.68;;;4.22;;
58294;SDS011;45705;55.592;37.460;2023-06-22T04:52:05;7.13;;;4.40;;
58294;SDS011;45705;55.592;37.460;2023-06-22T04:54:33;8.00;;;3.83;;
58294;SDS011;45705;55.592;37.460;2023-06-22T04:57:00;6.23;;;4.60;;
58294;SDS011;45705;55.592;37.460;2023-06-22T04:59:27;8.65;;;4.35;;
58294;SDS011;45705;55.592;37.460;2023-06-22T05:01:58;8.70;;;4.72;;
58294;SDS011;45705;55.592;37.460;2023-06-22T05:04:25;9.40;;;4.75;;
58294;SDS011;45705;55.592;37.460;2023-06-22T05:06:53;6.10;;;4.13;;
58294;SDS011;45705;55.592;37.460;2023-06-22T05:09:20;6.55;;;4.38;;
58294;SDS011;45705;55.592;37.460;2023-06-22T05:11:46;5.90;;;4.22;;
58294;SDS011;45705;55.592;37.460;2023-06-22T05:14:12;7.28;;;4.70;;
58294;SDS011;45705;55.592;37.460;2023-06-22T05:16:40;8.52;;;4.85;;
58294;SDS011;45705;55.592;37.460;2023-06-22T05:19:07;5.32;;;4.20;;
58294;SDS011;45705;55.592;37.460;2023-06-22T05:21:32;6.63;;;4.03;;
58294;SDS011;45705;55.592;37.460;2023-06-22T05:23:58;6.32;;;3.92;;
58294;SDS011;45705;55.592;37.460;2023-06-22T05:26:26;8.15;;;3.75;;
58294;SDS011;45705;55.592;37.460;2023-06-22T05:28:52;7.93;;;4.97;;
58294;SDS011;45705;55.592;37.460;2023-06-22T05:31:19;7.10;;;3.93;;
58294;SDS011;45705;55.592;37.460;2023-06-22T05:33:45;10.60;;;4.07;;
58294;SDS011;45705;55.592;37.460;2023-06-22T05:36:12;6.45;;;3.70;;
58294;SDS011;45705;55.592;37.460;2023-06-22T05:38:39;7.38;;;3.90;;
58294;SDS011;45705;55.592;37.460;2023-06-22T05:41:05;9.27;;;3.80;;
58294;SDS011;45705;55.592;37.460;2023-06-22T05:43:32;7.35;;;3.88;;
58294;SDS011;45705;55.592;37.460;2023-06-22T05:45:57;11.27;;;3.97;;
58294;SDS011;45705;55.592;37.460;2023-06-22T05:48:23;5.95;;;3.72;;
58294;SDS011;45705;55.592;37.460;2023-06-22T05:50:49;10.25;;;4.40;;
58294;SDS011;45705;55.592;37.460;2023-06-22T05:53:15;7.70;;;4.72;;
58294;SDS011;45705;55.592;37.460;2023-06-22T05:55:41;11.45;;;4.00;;
58294;SDS011;45705;55.592;37.460;2023-06-22T05:58:07;7.95;;;3.70;;
58294;SDS011;45705;55.592;37.460;2023-06-22T06:00:33;7.47;;;3.92;;
58294;SDS011;45705;55.592;37.460;2023-06-22T06:02:59;5.97;;;4.00;;
58294;SDS011;45705;55.592;37.460;2023-06-22T06:05:32;9.38;;;4.00;;
58294;SDS011;45705;55.592;37.460;2023-06-22T06:07:59;7.65;;;4.13;;
58294;SDS011;45705;55.592;37.460;2023-06-22T06:10:30;10.55;;;4.00;;
58294;SDS011;45705;55.592;37.460;2023-06-22T06:12:56;9.68;;;4.20;;
58294;SDS011;45705;55.592;37.460;2023-06-22T06:15:22;8.10;;;4.03;;
58294;SDS011;45705;55.592;37.460;2023-06-22T06:17:48;5.53;;;3.85;;
58294;SDS011;45705;55.592;37.460;2023-06-22T06:20:15;12.25;;;4.38;;
58294;SDS011;45705;55.592;37.460;2023-06-22T06:22:43;6.78;;;3.55;;
58294;SDS011;45705;55.592;37.460;2023-06-22T06:25:09;8.35;;;3.60;;
58294;SDS011;45705;55.592;37.460;2023-06-22T06:27:35;6.00;;;3.30;;
58294;SDS011;45705;55.592;37.460;2023-06-22T06:30:00;6.18;;;3.47;;
58294;SDS011;45705;55.592;37.460;2023-06-22T06:32:29;4.85;;;3.42;;
58294;SDS011;45705;55.592;37.460;2023-06-22T06:34:55;3.50;;;3.08;;
58294;SDS011;45705;55.592;37.460;2023-06-22T06:37:20;4.63;;;3.58;;
58294;SDS011;45705;55.592;37.460;2023-06-22T06:39:46;7.47;;;3.47;;
58294;SDS011;45705;55.592;37.460;2023-06-22T06:42:12;5.38;;;3.50;;
58294;SDS011;45705;55.592;37.460;2023-06-22T06:44:38;6.03;;;3.65;;
58294;SDS011;45705;55.592;37.460;2023-06-22T06:47:04;6.00;;;3.50;;
58294;SDS011;45705;55.592;37.460;2023-06-22T06:49:29;5.57;;;3.40;;
58294;SDS011;45705;55.592;37.460;2023-06-22T06:51:55;7.72;;;3.95;;
58294;SDS011;45705;55.592;37.460;2023-06-22T06:54:21;9.35;;;3.53;;
58294;SDS011;45705;55.592;37.460;2023-06-22T06:56:47;9.65;;;3.60;;
58294;SDS011;45705;55.592;37.460;2023-06-22T06:59:16;4.20;;;3.58;;
58294;SDS011;45705;55.592;37.460;2023-06-22T07:01:42;5.53;;;3.30;;
58294;SDS011;45705;55.592;37.460;2023-06-22T07:04:09;6.15;;;3.88;;
58294;SDS011;45705;55.592;37.460;2023-06-22T07:06:35;5.60;;;3.58;;
58294;SDS011;45705;55.592;37.460;2023-06-22T07:09:01;4.65;;;3.40;;
58294;SDS011;45705;55.592;37.460;2023-06-22T07:11:28;13.55;;;3.78;;
58294;SDS011;45705;55.592;37.460;2023-06-22T07:13:54;6.63;;;4.05;;
58294;SDS011;45705;55.592;37.460;2023-06-22T07:16:20;4.15;;;3.45;;
58294;SDS011;45705;55.592;37.460;2023-06-22T07:18:45;7.68;;;3.75;;
58294;SDS011;45705;55.592;37.460;2023-06-22T07:21:11;7.07;;;3.60;;
58294;SDS011;45705;55.592;37.460;2023-06-22T07:23:37;8.07;;;3.72;;
58294;SDS011;45705;55.592;37.460;2023-06-22T07:26:02;6.38;;;3.63;;
58294;SDS011;45705;55.592;37.460;2023-06-22T07:28:28;7.75;;;3.80;;
58294;SDS011;45705;55.592;37.460;2023-06-22T07:30:56;5.22;;;3.45;;
58294;SDS011;45705;55.592;37.460;2023-06-22T07:33:22;4.80;;;3.80;;
58294;SDS011;45705;55.592;37.460;2023-06-22T07:35:48;10.75;;;3.70;;
58294;SDS011;45705;55.592;37.460;2023-06-22T07:40:41;9.20;;;4.05;;
58294;SDS011;45705;55.592;37.460;2023-06-22T07:43:07;11.80;;;3.80;;
58294;SDS011;45705;55.592;37.460;2023-06-22T07:45:33;10.07;;;4.18;;
58294;SDS011;45705;55.592;37.460;2023-06-22T07:48:00;6.35;;;4.30;;
58294;SDS011;45705;55.592;37.460;2023-06-22T07:50:26;6.20;;;3.60;;
58294;SDS011;45705;55.592;37.460;2023-06-22T07:52:52;7.47;;;4.10;;
58294;SDS011;45705;55.592;37.460;2023-06-22T07:55:18;5.40;;;3.63;;
58294;SDS011;45705;55.592;37.460;2023-06-22T07:57:44;5.63;;;4.07;;
58294;SDS011;45705;55.592;37.460;2023-06-22T08:00:11;5.63;;;3.95;;
58294;SDS011;45705;55.592;37.460;2023-06-22T08:02:42;9.32;;;5.72;;
58294;SDS011;45705;55.592;37.460;2023-06-22T08:05:09;6.65;;;3.67;;
58294;SDS011;45705;55.592;37.460;2023-06-22T08:07:36;7.57;;;3.90;;
58294;SDS011;45705;55.592;37.460;2023-06-22T08:10:05;5.80;;;3.75;;
58294;SDS011;45705;55.592;37.460;2023-06-22T08:12:38;7.63;;;4.05;;
58294;SDS011;45705;55.592;37.460;2023-06-22T08:15:05;6.78;;;4.30;;
58294;SDS011;45705;55.592;37.460;2023-06-22T08:17:31;4.80;;;4.15;;
58294;SDS011;45705;55.592;37.460;2023-06-22T08:19:57;5.07;;;3.50;;
58294;SDS011;45705;55.592;37.460;2023-06-22T08:22:24;5.10;;;4.15;;
58294;SDS011;45705;55.592;37.460;2023-06-22T08:24:50;6.63;;;4.22;;
58294;SDS011;45705;55.592;37.460;2023-06-22T08:27:16;8.40;;;3.88;;
58294;SDS011;45705;55.592;37.460;2023-06-22T08:29:44;6.90;;;4.03;;
58294;SDS011;45705;55.592;37.460;2023-06-22T08:32:11;6.95;;;4.05;;
58294;SDS011;45705;55.592;37.460;2023-06-22T08:34:37;8.73;;;4.05;;
58294;SDS011;45705;55.592;37.460;2023-06-22T08:37:10;18.58;;;5.60;;
58294;SDS011;45705;55.592;37.460;2023-06-22T08:39:36;10.50;;;5.32;;
58294;SDS011;45705;55.592;37.460;2023-06-22T08:42:02;8.15;;;4.18;;
58294;SDS011;45705;55.592;37.460;2023-06-22T08:44:28;11.48;;;4.68;;
58294;SDS011;45705;55.592;37.460;2023-06-22T08:46:53;7.22;;;4.03;;
58294;SDS011;45705;55.592;37.460;2023-06-22T08:49:19;6.78;;;4.50;;
58294;SDS011;45705;55.592;37.460;2023-06-22T08:51:45;6.57;;;4.88;;
58294;SDS011;45705;55.592;37.460;2023-06-22T08:54:12;15.95;;;4.82;;
58294;SDS011;45705;55.592;37.460;2023-06-22T08:56:39;7.70;;;4.10;;
58294;SDS011;45705;55.592;37.460;2023-06-22T08:59:04;9.30;;;4.15;;
58294;SDS011;45705;55.592;37.460;2023-06-22T09:03:58;5.80;;;3.80;;
58294;SDS011;45705;55.592;37.460;2023-06-22T09:06:25;7.72;;;4.50;;
58294;SDS011;45705;55.592;37.460;2023-06-22T09:08:51;6.55;;;4.03;;
58294;SDS011;45705;55.592;37.460;2023-06-22T09:11:16;6.10;;;3.90;;
58294;SDS011;45705;55.592;37.460;2023-06-22T09:13:42;7.05;;;3.78;;
58294;SDS011;45705;55.592;37.460;2023-06-22T09:16:08;5.55;;;4.28;;
58294;SDS011;45705;55.592;37.460;2023-06-22T09:18:34;6.78;;;4.40;;
58294;SDS011;45705;55.592;37.460;2023-06-22T09:20:59;5.40;;;4.07;;
58294;SDS011;45705;55.592;37.460;2023-06-22T09:23:25;7.38;;;4.40;;
58294;SDS011;45705;55.592;37.460;2023-06-22T09:25:51;9.57;;;4.13;;
58294;SDS011;45705;55.592;37.460;2023-06-22T09:28:17;5.95;;;3.95;;
58294;SDS011;45705;55.592;37.460;2023-06-22T09:30:43;8.20;;;4.63;;
58294;SDS011;45705;55.592;37.460;2023-06-22T09:33:09;6.07;;;3.85;;
58294;SDS011;45705;55.592;37.460;2023-06-22T09:35:35;7.38;;;4.07;;
58294;SDS011;45705;55.592;37.460;2023-06-22T09:38:01;5.40;;;4.13;;
58294;SDS011;45705;55.592;37.460;2023-06-22T09:40:26;7.75;;;4.22;;
58294;SDS011;45705;55.592;37.460;2023-06-22T09:42:52;5.47;;;4.28;;
58294;SDS011;45705;55.592;37.460;2023-06-22T09:45:18;7.05;;;4.30;;
58294;SDS011;45705;55.592;37.460;2023-06-22T09:47:43;7.25;;;4.45;;
58294;SDS011;45705;55.592;37.460;2023-06-22T09:50:09;9.45;;;4.15;;
58294;SDS011;45705;55.592;37.460;2023-06-22T09:52:35;5.25;;;4.18;;
58294;SDS011;45705;55.592;37.460;2023-06-22T09:55:01;5.88;;;4.20;;
58294;SDS011;45705;55.592;37.460;2023-06-22T09:57:29;5.00;;;4.05;;
58294;SDS011;45705;55.592;37.460;2023-06-22T09:59:54;5.65;;;3.67;;
58294;SDS011;45705;55.592;37.460;2023-06-22T10:02:21;5.70;;;4.50;;
58294;SDS011;45705;55.592;37.460;2023-06-22T10:04:47;10.40;;;5.07;;
58294;SDS011;45705;55.592;37.460;2023-06-22T10:07:13;7.18;;;4.00;;
58294;SDS011;45705;55.592;37.460;2023-06-22T10:09:39;7.45;;;4.40;;
58294;SDS011;45705;55.592;37.460;2023-06-22T10:12:05;10.32;;;4.68;;
58294;SDS011;45705;55.592;37.460;2023-06-22T10:14:31;5.50;;;4.57;;
58294;SDS011;45705;55.592;37.460;2023-06-22T10:16:57;6.18;;;4.47;;
58294;SDS011;45705;55.592;37.460;2023-06-22T10:19:22;9.38;;;4.82;;
58294;SDS011;45705;55.592;37.460;2023-06-22T10:21:48;14.15;;;5.10;;
58294;SDS011;45705;55.592;37.460;2023-06-22T10:24:13;9.55;;;4.90;;
58294;SDS011;45705;55.592;37.460;2023-06-22T10:26:39;9.65;;;4.82;;
58294;SDS011;45705;55.592;37.460;2023-06-22T10:29:05;8.40;;;4.60;;
58294;SDS011;45705;55.592;37.460;2023-06-22T10:31:30;13.35;;;4.47;;
58294;SDS011;45705;55.592;37.460;2023-06-22T10:33:56;8.23;;;4.53;;
58294;SDS011;45705;55.592;37.460;2023-06-22T10:36:22;13.48;;;5.22;;
58294;SDS011;45705;55.592;37.460;2023-06-22T10:38:48;7.18;;;4.53;;
58294;SDS011;45705;55.592;37.460;2023-06-22T10:41:14;7.55;;;5.15;;
58294;SDS011;45705;55.592;37.460;2023-06-22T10:43:41;6.97;;;4.30;;
58294;SDS011;45705;55.592;37.460;2023-06-22T10:46:07;8.45;;;5.05;;
58294;SDS011;45705;55.592;37.460;2023-06-22T10:48:32;7.50;;;5.20;;
58294;SDS011;45705;55.592;37.460;2023-06-22T10:50:58;10.32;;;4.78;;
58294;SDS011;45705;55.592;37.460;2023-06-22T10:53:24;8.05;;;4.10;;
58294;SDS011;45705;55.592;37.460;2023-06-22T10:55:50;10.30;;;5.00;;
58294;SDS011;45705;55.592;37.460;2023-06-22T10:58:18;6.20;;;4.68;;
58294;SDS011;45705;55.592;37.460;2023-06-22T11:00:47;5.35;;;4.53;;
58294;SDS011;45705;55.592;37.460;2023-06-22T11:03:13;7.93;;;4.93;;
58294;SDS011;45705;55.592;37.460;2023-06-22T11:05:39;14.45;;;4.95;;
58294;SDS011;45705;55.592;37.460;2023-06-22T11:08:05;10.02;;;4.70;;
58294;SDS011;45705;55.592;37.460;2023-06-22T11:10:31;5.30;;;4.78;;
58294;SDS011;45705;55.592;37.460;2023-06-22T11:12:56;7.78;;;4.70;;
58294;SDS011;45705;55.592;37.460;2023-06-22T11:15:23;9.27;;;4.82;;
58294;SDS011;45705;55.592;37.460;2023-06-22T11:17:49;9.68;;;4.50;;
58294;SDS011;45705;55.592;37.460;2023-06-22T11:20:15;10.00;;;4.97;;
58294;SDS011;45705;55.592;37.460;2023-06-22T11:22:41;6.13;;;4.60;;
58294;SDS011;45705;55.592;37.460;2023-06-22T11:25:07;7.80;;;5.00;;
58294;SDS011;45705;55.592;37.460;2023-06-22T11:27:34;7.97;;;4.82;;
58294;SDS011;45705;55.592;37.460;2023-06-22T11:30:00;12.70;;;6.63;;
58294;SDS011;45705;55.592;37.460;2023-06-22T11:32:25;6.88;;;4.78;;
58294;SDS011;45705;55.592;37.460;2023-06-22T11:34:51;11.20;;;5.20;;
58294;SDS011;45705;55.592;37.460;2023-06-22T11:37:17;8.40;;;4.82;;
58294;SDS011;45705;55.592;37.460;2023-06-22T11:39:43;6.07;;;4.60;;
58294;SDS011;45705;55.592;37.460;2023-06-22T11:42:09;9.82;;;5.20;;
58294;SDS011;45705;55.592;37.460;2023-06-22T11:44:35;5.97;;;4.43;;
58294;SDS011;45705;55.592;37.460;2023-06-22T11:47:00;7.50;;;5.20;;
58294;SDS011;45705;55.592;37.460;2023-06-22T11:49:29;10.25;;;5.10;;
58294;SDS011;45705;55.592;37.460;2023-06-22T11:51:56;9.05;;;5.25;;
58294;SDS011;45705;55.592;37.460;2023-06-22T11:54:21;7.22;;;5.00;;
58294;SDS011;45705;55.592;37.460;2023-06-22T11:56:47;16.20;;;10.13;;
58294;SDS011;45705;55.592;37.460;2023-06-22T11:59:13;7.45;;;5.38;;
58294;SDS011;45705;55.592;37.460;2023-06-22T12:01:38;8.27;;;5.15;;
58294;SDS011;45705;55.592;37.460;2023-06-22T12:04:04;7.40;;;5.05;;
58294;SDS011;45705;55.592;37.460;2023-06-22T12:06:31;9.05;;;5.43;;
58294;SDS011;45705;55.592;37.460;2023-06-22T12:08:58;9.18;;;5.05;;
58294;SDS011;45705;55.592;37.460;2023-06-22T12:11:24;7.38;;;5.20;;
58294;SDS011;45705;55.592;37.460;2023-06-22T12:13:49;9.40;;;5.25;;
58294;SDS011;45705;55.592;37.460;2023-06-22T12:16:15;10.60;;;6.90;;
58294;SDS011;45705;55.592;37.460;2023-06-22T12:18:41;7.57;;;4.82;;
58294;SDS011;45705;55.592;37.460;2023-06-22T12:21:07;8.50;;;5.00;;
58294;SDS011;45705;55.592;37.460;2023-06-22T12:23:32;8.60;;;4.93;;
58294;SDS011;45705;55.592;37.460;2023-06-22T12:25:58;7.80;;;4.68;;
58294;SDS011;45705;55.592;37.460;2023-06-22T12:28:25;8.07;;;4.90;;
58294;SDS011;45705;55.592;37.460;2023-06-22T12:30:50;7.30;;;5.00;;
58294;SDS011;45705;55.592;37.460;2023-06-22T12:33:16;6.80;;;5.00;;
58294;SDS011;45705;55.592;37.460;2023-06-22T12:35:42;9.43;;;4.88;;
58294;SDS011;45705;55.592;37.460;2023-06-22T12:38:08;10.57;;;4.82;;
58294;SDS011;45705;55.592;37.460;2023-06-22T12:40:34;10.82;;;5.07;;
58294;SDS011;45705;55.592;37.460;2023-06-22T12:43:00;6.72;;;4.93;;
58294;SDS011;45705;55.592;37.460;2023-06-22T12:45:27;8.25;;;6.32;;
58294;SDS011;45705;55.592;37.460;2023-06-22T12:47:56;7.50;;;5.20;;
58294;SDS011;45705;55.592;37.460;2023-06-22T12:50:22;7.00;;;4.95;;
58294;SDS011;45705;55.592;37.460;2023-06-22T12:52:48;9.68;;;4.97;;
58294;SDS011;45705;55.592;37.460;2023-06-22T12:55:14;8.00;;;5.50;;
58294;SDS011;45705;55.592;37.460;2023-06-22T12:57:40;6.03;;;4.88;;
58294;SDS011;45705;55.592;37.460;2023-06-22T13:00:06;5.75;;;4.75;;
58294;SDS011;45705;55.592;37.460;2023-06-22T13:02:33;6.75;;;4.93;;
58294;SDS011;45705;55.592;37.460;2023-06-22T13:04:59;8.52;;;5.10;;
58294;SDS011;45705;55.592;37.460;2023-06-22T13:07:25;7.35;;;4.90;;
58294;SDS011;45705;55.592;37.460;2023-06-22T13:09:51;6.10;;;5.20;;
58294;SDS011;45705;55.592;37.460;2023-06-22T13:12:17;6.85;;;5.70;;
58294;SDS011;45705;55.592;37.460;2023-06-22T13:14:43;7.03;;;4.70;;
58294;SDS011;45705;55.592;37.460;2023-06-22T13:17:09;6.68;;;5.10;;
58294;SDS011;45705;55.592;37.460;2023-06-22T13:19:34;7.70;;;5.28;;
58294;SDS011;45705;55.592;37.460;2023-06-22T13:22:01;6.03;;;4.90;;
58294;SDS011;45705;55.592;37.460;2023-06-22T13:24:27;7.20;;;5.13;;
58294;SDS011;45705;55.592;37.460;2023-06-22T13:26:53;8.52;;;4.90;;
58294;SDS011;45705;55.592;37.460;2023-06-22T13:29:19;8.55;;;5.03;;
58294;SDS011;45705;55.592;37.460;2023-06-22T13:31:44;5.97;;;4.70;;
58294;SDS011;45705;55.592;37.460;2023-06-22T13:34:10;11.38;;;8.10;;
58294;SDS011;45705;55.592;37.460;2023-06-22T13:36:36;22.50;;;12.65;;
58294;SDS011;45705;55.592;37.460;2023-06-22T13:39:01;7.78;;;5.07;;
58294;SDS011;45705;55.592;37.460;2023-06-22T13:41:28;7.65;;;5.63;;
58294;SDS011;45705;55.592;37.460;2023-06-22T13:43:53;8.23;;;5.03;;
58294;SDS011;45705;55.592;37.460;2023-06-22T13:46:19;7.72;;;5.13;;
58294;SDS011;45705;55.592;37.460;2023-06-22T13:48:44;6.97;;;5.32;;
58294;SDS011;45705;55.592;37.460;2023-06-22T13:51:10;5.80;;;4.82;;
58294;SDS011;45705;55.592;37.460;2023-06-22T13:53:36;6.47;;;4.90;;
58294;SDS011;45705;55.592;37.460;2023-06-22T13:56:01;12.93;;;6.32;;
58294;SDS011;45705;55.592;37.460;2023-06-22T13:58:27;8.23;;;5.60;;
58294;SDS011;45705;55.592;37.460;2023-06-22T14:00:53;14.60;;;5.07;;
58294;SDS011;45705;55.592;37.460;2023-06-22T14:03:18;8.00;;;4.90;;
58294;SDS011;45705;55.592;37.460;2023-06-22T14:05:44;8.40;;;5.10;;
58294;SDS011;45705;55.592;37.460;2023-06-22T14:08:10;6.70;;;5.25;;
58294;SDS011;45705;55.592;37.460;2023-06-22T14:10:37;9.23;;;5.07;;
58294;SDS011;45705;55.592;37.460;2023-06-22T14:13:02;7.85;;;4.75;;
58294;SDS011;45705;55.592;37.460;2023-06-22T14:15:31;6.03;;;5.05;;
58294;SDS011;45705;55.592;37.460;2023-06-22T14:17:57;8.70;;;5.13;;
58294;SDS011;45705;55.592;37.460;2023-06-22T14:20:23;6.80;;;5.18;;
58294;SDS011;45705;55.592;37.460;2023-06-22T14:22:48;7.13;;;5.25;;
58294;SDS011;45705;55.592;37.460;2023-06-22T14:25:14;7.10;;;4.95;;
58294;SDS011;45705;55.592;37.460;2023-06-22T14:27:40;9.25;;;4.95;;
58294;SDS011;45705;55.592;37.460;2023-06-22T14:30:05;8.52;;;5.55;;
58294;SDS011;45705;55.592;37.460;2023-06-22T14:32:32;10.88;;;4.95;;
58294;SDS011;45705;55.592;37.460;2023-06-22T14:34:57;7.80;;;5.47;;
58294;SDS011;45705;55.592;37.460;2023-06-22T14:37:23;7.38;;;5.47;;
58294;SDS011;45705;55.592;37.460;2023-06-22T14:39:49;7.30;;;5.32;;
58294;SDS011;45705;55.592;37.460;2023-06-22T14:42:14;13.30;;;5.75;;
58294;SDS011;45705;55.592;37.460;2023-06-22T14:44:40;10.35;;;5.72;;
58294;SDS011;45705;55.592;37.460;2023-06-22T14:47:06;8.00;;;5.47;;